sensor_id;sensor_type;location;lat;lon;timestamp;pressure;altitude;pressure_sealevel;temperature;humidity
10732;BME280;5417;42.686;23.244;2022-12-07T00:01:18;94287.84;;;8.05;77.43
10732;BME280;5417;42.686;23.244;2022-12-07T00:03:46;94279.38;;;8.03;76.77
10732;BME280;5417;42.686;23.244;2022-12-07T00:06:15;94282.78;;;8.03;76.51
10732;BME280;5417;42.686;23.244;2022-12-07T00:08:43;94280.44;;;8.11;76.08
10732;BME280;5417;42.686;23.244;2022-12-07T00:11:15;94273.84;;;8.07;76.18
10732;BME280;5417;42.686;23.244;2022-12-07T00:13:45;94268.41;;;7.99;77.07
10732;BME280;5417;42.686;23.244;2022-12-07T00:16:19;94270.66;;;8.04;76.67
10732;BME280;5417;42.686;23.244;2022-12-07T00:18:57;94272.78;;;8.10;76.39
10732;BME280;5417;42.686;23.244;2022-12-07T00:21:26;94282.59;;;8.17;76.60
10732;BME280;5417;42.686;23.244;2022-12-07T00:23:56;94268.53;;;8.09;76.70
10732;BME280;5417;42.686;23.244;2022-12-07T00:26:25;94275.38;;;8.10;76.60
10732;BME280;5417;42.686;23.244;2022-12-07T00:28:58;94276.09;;;8.12;76.21
10732;BME280;5417;42.686;23.244;2022-12-07T00:31:27;94273.72;;;8.09;76.66
10732;BME280;5417;42.686;23.244;2022-12-07T00:33:55;94267.13;;;8.05;76.43
10732;BME280;5417;42.686;23.244;2022-12-07T00:36:30;94274.47;;;8.22;76.11
10732;BME280;5417;42.686;23.244;2022-12-07T00:39:04;94278.81;;;8.10;76.12
10732;BME280;5417;42.686;23.244;2022-12-07T00:41:32;94275.19;;;7.89;76.91
10732;BME280;5417;42.686;23.244;2022-12-07T00:44:01;94275.75;;;7.81;76.45
10732;BME280;5417;42.686;23.244;2022-12-07T00:46:30;94279.94;;;7.71;77.70
10732;BME280;5417;42.686;23.244;2022-12-07T00:49:01;94281.97;;;7.79;78.43
10732;BME280;5417;42.686;23.244;2022-12-07T00:51:28;94279.66;;;7.87;78.16
10732;BME280;5417;42.686;23.244;2022-12-07T00:53:57;94276.16;;;7.75;77.92
10732;BME280;5417;42.686;23.244;2022-12-07T00:56:26;94280.16;;;7.68;78.69
10732;BME280;5417;42.686;23.244;2022-12-07T00:58:54;94276.50;;;7.71;78.32
10732;BME280;5417;42.686;23.244;2022-12-07T01:01:28;94284.78;;;7.76;78.42
10732;BME280;5417;42.686;23.244;2022-12-07T01:03:58;94282.03;;;7.66;78.39
10732;BME280;5417;42.686;23.244;2022-12-07T01:06:27;94277.06;;;7.63;79.12
10732;BME280;5417;42.686;23.244;2022-12-07T01:08:56;94274.38;;;7.65;79.31
10732;BME280;5417;42.686;23.244;2022-12-07T01:11:27;94269.78;;;7.68;79.48
10732;BME280;5417;42.686;23.244;2022-12-07T01:14:00;94267.06;;;7.82;78.77
10732;BME280;5417;42.686;23.244;2022-12-07T01:16:32;94265.69;;;7.77;78.72
10732;BME280;5417;42.686;23.244;2022-12-07T01:19:00;94256.88;;;7.79;78.19
10732;BME280;5417;42.686;23.244;2022-12-07T01:21:31;94259.28;;;7.82;79.27
10732;BME280;5417;42.686;23.244;2022-12-07T01:24:00;94255.75;;;7.83;78.93
10732;BME280;5417;42.686;23.244;2022-12-07T01:26:29;94251.38;;;7.84;78.32
10732;BME280;5417;42.686;23.244;2022-12-07T01:28:57;94254.81;;;7.84;78.92
10732;BME280;5417;42.686;23.244;2022-12-07T01:31:26;94249.50;;;7.86;77.98
10732;BME280;5417;42.686;23.244;2022-12-07T01:33:56;94246.97;;;7.97;77.13
10732;BME280;5417;42.686;23.244;2022-12-07T01:36:28;94249.09;;;8.03;76.82
10732;BME280;5417;42.686;23.244;2022-12-07T01:38:57;94235.25;;;7.80;76.93
10732;BME280;5417;42.686;23.244;2022-12-07T01:41:25;94257.16;;;7.87;77.21
10732;BME280;5417;42.686;23.244;2022-12-07T01:44:13;94239.78;;;7.77;77.68
10732;BME280;5417;42.686;23.244;2022-12-07T01:46:42;94250.16;;;7.77;78.58
10732;BME280;5417;42.686;23.244;2022-12-07T01:49:16;94245.69;;;7.79;77.95
10732;BME280;5417;42.686;23.244;2022-12-07T01:51:46;94244.56;;;7.83;78.07
10732;BME280;5417;42.686;23.244;2022-12-07T01:54:17;94250.00;;;7.67;78.63
10732;BME280;5417;42.686;23.244;2022-12-07T01:56:50;94232.66;;;7.56;79.43
10732;BME280;5417;42.686;23.244;2022-12-07T01:59:26;94228.22;;;7.70;78.76
10732;BME280;5417;42.686;23.244;2022-12-07T02:01:54;94220.31;;;7.60;78.05
10732;BME280;5417;42.686;23.244;2022-12-07T02:04:25;94234.78;;;7.63;79.30
10732;BME280;5417;42.686;23.244;2022-12-07T02:06:52;94234.91;;;7.61;79.87
10732;BME280;5417;42.686;23.244;2022-12-07T02:09:22;94235.00;;;7.59;79.59
10732;BME280;5417;42.686;23.244;2022-12-07T02:11:50;94230.59;;;7.73;79.00
10732;BME280;5417;42.686;23.244;2022-12-07T02:14:18;94231.09;;;7.78;78.65
10732;BME280;5417;42.686;23.244;2022-12-07T02:16:53;94235.88;;;7.95;78.21
10732;BME280;5417;42.686;23.244;2022-12-07T02:19:55;94227.66;;;8.01;77.36
10732;BME280;5417;42.686;23.244;2022-12-07T02:25:38;94229.53;;;7.75;78.15
10732;BME280;5417;42.686;23.244;2022-12-07T02:28:21;94226.34;;;7.72;79.17
10732;BME280;5417;42.686;23.244;2022-12-07T02:30:57;94227.28;;;7.71;79.38
10732;BME280;5417;42.686;23.244;2022-12-07T02:33:31;94221.88;;;7.74;79.44
10732;BME280;5417;42.686;23.244;2022-12-07T02:36:06;94227.06;;;7.74;79.12
10732;BME280;5417;42.686;23.244;2022-12-07T02:38:39;94234.94;;;7.72;79.53
10732;BME280;5417;42.686;23.244;2022-12-07T02:41:10;94231.31;;;7.75;78.53
10732;BME280;5417;42.686;23.244;2022-12-07T02:43:45;94233.19;;;7.73;78.29
10732;BME280;5417;42.686;23.244;2022-12-07T02:46:21;94217.97;;;7.68;78.20
10732;BME280;5417;42.686;23.244;2022-12-07T02:48:49;94211.97;;;7.68;77.22
10732;BME280;5417;42.686;23.244;2022-12-07T02:51:25;94215.28;;;7.70;77.54
10732;BME280;5417;42.686;23.244;2022-12-07T02:53:55;94202.47;;;7.79;77.54
10732;BME280;5417;42.686;23.244;2022-12-07T02:56:38;94201.50;;;7.69;77.19
10732;BME280;5417;42.686;23.244;2022-12-07T02:59:13;94204.19;;;7.68;77.50
10732;BME280;5417;42.686;23.244;2022-12-07T03:01:55;94200.31;;;7.62;77.36
10732;BME280;5417;42.686;23.244;2022-12-07T03:04:42;94189.00;;;7.63;77.23
10732;BME280;5417;42.686;23.244;2022-12-07T03:07:20;94198.09;;;7.69;78.30
10732;BME280;5417;42.686;23.244;2022-12-07T03:09:54;94202.78;;;7.64;77.73
10732;BME280;5417;42.686;23.244;2022-12-07T03:12:30;94201.94;;;7.63;77.14
10732;BME280;5417;42.686;23.244;2022-12-07T03:15:08;94191.94;;;7.58;77.39
10732;BME280;5417;42.686;23.244;2022-12-07T03:17:39;94203.94;;;7.59;77.22
10732;BME280;5417;42.686;23.244;2022-12-07T03:20:11;94198.97;;;7.56;76.99
10732;BME280;5417;42.686;23.244;2022-12-07T03:22:42;94205.09;;;7.55;77.91
10732;BME280;5417;42.686;23.244;2022-12-07T03:25:14;94210.06;;;7.58;77.61
10732;BME280;5417;42.686;23.244;2022-12-07T03:27:45;94209.50;;;7.66;77.94
10732;BME280;5417;42.686;23.244;2022-12-07T03:30:18;94204.53;;;7.63;77.40
10732;BME280;5417;42.686;23.244;2022-12-07T03:32:53;94194.97;;;7.52;78.06
10732;BME280;5417;42.686;23.244;2022-12-07T03:35:26;94200.03;;;7.54;77.08
10732;BME280;5417;42.686;23.244;2022-12-07T03:37:57;94200.84;;;7.54;77.82
10732;BME280;5417;42.686;23.244;2022-12-07T03:40:30;94208.63;;;7.54;77.91
10732;BME280;5417;42.686;23.244;2022-12-07T03:43:04;94203.56;;;7.53;78.15
10732;BME280;5417;42.686;23.244;2022-12-07T03:45:37;94209.84;;;7.62;77.56
10732;BME280;5417;42.686;23.244;2022-12-07T03:48:16;94201.16;;;7.74;76.71
10732;BME280;5417;42.686;23.244;2022-12-07T03:50:52;94188.97;;;7.87;75.99
10732;BME280;5417;42.686;23.244;2022-12-07T03:53:36;94195.03;;;7.75;76.28
10732;BME280;5417;42.686;23.244;2022-12-07T03:56:08;94197.81;;;7.60;77.15
10732;BME280;5417;42.686;23.244;2022-12-07T03:58:38;94201.47;;;7.58;77.80
10732;BME280;5417;42.686;23.244;2022-12-07T04:01:05;94197.34;;;7.55;77.58
10732;BME280;5417;42.686;23.244;2022-12-07T04:03:34;94183.06;;;7.50;77.28
10732;BME280;5417;42.686;23.244;2022-12-07T04:06:03;94179.06;;;7.46;78.41
10732;BME280;5417;42.686;23.244;2022-12-07T04:08:32;94189.78;;;7.52;77.98
10732;BME280;5417;42.686;23.244;2022-12-07T04:10:59;94184.13;;;7.47;77.17
10732;BME280;5417;42.686;23.244;2022-12-07T04:13:26;94175.97;;;7.41;79.03
10732;BME280;5417;42.686;23.244;2022-12-07T04:15:53;94195.06;;;7.51;78.54
10732;BME280;5417;42.686;23.244;2022-12-07T04:18:19;94184.78;;;7.73;78.32
10732;BME280;5417;42.686;23.244;2022-12-07T04:20:48;94189.94;;;7.62;77.16
10732;BME280;5417;42.686;23.244;2022-12-07T04:23:15;94188.84;;;7.53;77.52
10732;BME280;5417;42.686;23.244;2022-12-07T04:25:50;94195.22;;;7.60;77.59
10732;BME280;5417;42.686;23.244;2022-12-07T04:28:18;94201.69;;;7.55;76.93
10732;BME280;5417;42.686;23.244;2022-12-07T04:30:45;94194.53;;;7.58;77.93
10732;BME280;5417;42.686;23.244;2022-12-07T04:33:13;94187.31;;;7.51;77.92
10732;BME280;5417;42.686;23.244;2022-12-07T04:35:42;94195.06;;;7.51;78.51
10732;BME280;5417;42.686;23.244;2022-12-07T04:38:10;94187.75;;;7.45;78.42
10732;BME280;5417;42.686;23.244;2022-12-07T04:40:37;94197.06;;;7.47;77.96
10732;BME280;5417;42.686;23.244;2022-12-07T04:43:04;94201.41;;;7.47;78.52
10732;BME280;5417;42.686;23.244;2022-12-07T04:45:31;94190.69;;;7.40;77.72
10732;BME280;5417;42.686;23.244;2022-12-07T04:47:58;94204.84;;;7.47;78.24
10732;BME280;5417;42.686;23.244;2022-12-07T04:50:25;94194.13;;;7.52;78.10
10732;BME280;5417;42.686;23.244;2022-12-07T04:52:52;94204.13;;;7.45;78.22
10732;BME280;5417;42.686;23.244;2022-12-07T04:55:20;94190.91;;;7.37;78.45
10732;BME280;5417;42.686;23.244;2022-12-07T04:57:47;94207.75;;;7.43;78.21
10732;BME280;5417;42.686;23.244;2022-12-07T05:00:17;94193.66;;;7.47;77.71
10732;BME280;5417;42.686;23.244;2022-12-07T05:02:44;94203.38;;;7.67;77.07
10732;BME280;5417;42.686;23.244;2022-12-07T05:05:11;94204.66;;;7.62;77.89
10732;BME280;5417;42.686;23.244;2022-12-07T05:07:38;94207.25;;;7.62;78.95
10732;BME280;5417;42.686;23.244;2022-12-07T05:10:06;94204.06;;;7.58;78.28
10732;BME280;5417;42.686;23.244;2022-12-07T05:12:34;94205.94;;;7.56;78.43
10732;BME280;5417;42.686;23.244;2022-12-07T05:15:02;94208.50;;;7.56;78.13
10732;BME280;5417;42.686;23.244;2022-12-07T05:17:29;94209.69;;;7.52;77.85
10732;BME280;5417;42.686;23.244;2022-12-07T05:19:56;94203.06;;;7.48;78.49
10732;BME280;5417;42.686;23.244;2022-12-07T05:22:23;94203.78;;;7.50;78.88
10732;BME280;5417;42.686;23.244;2022-12-07T05:25:04;94207.91;;;7.52;79.24
10732;BME280;5417;42.686;23.244;2022-12-07T05:27:32;94191.41;;;7.42;78.13
10732;BME280;5417;42.686;23.244;2022-12-07T05:30:00;94192.50;;;7.51;78.26
10732;BME280;5417;42.686;23.244;2022-12-07T05:32:30;94197.34;;;7.55;78.08
10732;BME280;5417;42.686;23.244;2022-12-07T05:34:59;94192.63;;;7.60;78.27
10732;BME280;5417;42.686;23.244;2022-12-07T05:37:45;94197.34;;;7.55;78.21
10732;BME280;5417;42.686;23.244;2022-12-07T05:40:15;94192.69;;;7.72;77.52
10732;BME280;5417;42.686;23.244;2022-12-07T05:42:50;94176.88;;;7.64;77.82
10732;BME280;5417;42.686;23.244;2022-12-07T05:45:31;94186.84;;;7.81;77.28
10732;BME280;5417;42.686;23.244;2022-12-07T05:47:57;94186.63;;;7.84;76.79
10732;BME280;5417;42.686;23.244;2022-12-07T05:50:25;94181.22;;;7.87;76.55
10732;BME280;5417;42.686;23.244;2022-12-07T05:52:53;94183.31;;;7.82;75.92
10732;BME280;5417;42.686;23.244;2022-12-07T05:55:20;94176.88;;;7.64;76.71
10732;BME280;5417;42.686;23.244;2022-12-07T05:57:47;94183.44;;;7.56;77.33
10732;BME280;5417;42.686;23.244;2022-12-07T06:00:30;94185.06;;;7.46;77.75
10732;BME280;5417;42.686;23.244;2022-12-07T06:03:11;94183.59;;;7.31;77.87
10732;BME280;5417;42.686;23.244;2022-12-07T06:05:39;94179.97;;;7.21;78.81
10732;BME280;5417;42.686;23.244;2022-12-07T06:08:07;94196.06;;;7.13;79.80
10732;BME280;5417;42.686;23.244;2022-12-07T06:10:34;94191.38;;;7.18;79.93
10732;BME280;5417;42.686;23.244;2022-12-07T06:13:03;94198.31;;;7.18;79.98
10732;BME280;5417;42.686;23.244;2022-12-07T06:15:35;94198.44;;;7.16;79.47
10732;BME280;5417;42.686;23.244;2022-12-07T06:18:05;94198.47;;;7.04;79.91
10732;BME280;5417;42.686;23.244;2022-12-07T06:20:32;94194.66;;;6.96;80.21
10732;BME280;5417;42.686;23.244;2022-12-07T06:22:59;94204.03;;;7.10;80.36
10732;BME280;5417;42.686;23.244;2022-12-07T06:25:28;94184.28;;;7.09;80.66
10732;BME280;5417;42.686;23.244;2022-12-07T06:27:55;94189.63;;;7.19;80.10
10732;BME280;5417;42.686;23.244;2022-12-07T06:30:22;94203.34;;;7.32;80.11
10732;BME280;5417;42.686;23.244;2022-12-07T06:32:51;94207.06;;;7.28;79.40
10732;BME280;5417;42.686;23.244;2022-12-07T06:35:18;94204.81;;;7.23;80.57
10732;BME280;5417;42.686;23.244;2022-12-07T06:37:47;94212.34;;;7.39;80.32
10732;BME280;5417;42.686;23.244;2022-12-07T06:40:14;94209.63;;;7.41;79.27
10732;BME280;5417;42.686;23.244;2022-12-07T06:42:41;94204.00;;;7.47;78.86
10732;BME280;5417;42.686;23.244;2022-12-07T06:45:09;94210.88;;;7.59;78.82
10732;BME280;5417;42.686;23.244;2022-12-07T06:47:42;94211.00;;;7.57;78.69
10732;BME280;5417;42.686;23.244;2022-12-07T06:50:12;94199.22;;;7.53;78.80
10732;BME280;5417;42.686;23.244;2022-12-07T06:52:40;94223.84;;;7.59;78.54
10732;BME280;5417;42.686;23.244;2022-12-07T06:55:09;94218.75;;;7.57;78.46
10732;BME280;5417;42.686;23.244;2022-12-07T06:57:42;94222.97;;;7.47;78.85
10732;BME280;5417;42.686;23.244;2022-12-07T07:00:14;94215.84;;;7.38;78.35
10732;BME280;5417;42.686;23.244;2022-12-07T07:02:49;94219.16;;;7.40;79.56
10732;BME280;5417;42.686;23.244;2022-12-07T07:05:18;94220.22;;;7.38;79.97
10732;BME280;5417;42.686;23.244;2022-12-07T07:07:47;94217.19;;;7.44;78.97
10732;BME280;5417;42.686;23.244;2022-12-07T07:10:14;94214.38;;;7.47;78.63
10732;BME280;5417;42.686;23.244;2022-12-07T07:12:41;94219.47;;;7.59;78.99
10732;BME280;5417;42.686;23.244;2022-12-07T07:15:12;94211.56;;;7.50;78.68
10732;BME280;5417;42.686;23.244;2022-12-07T07:17:41;94206.59;;;7.47;79.68
10732;BME280;5417;42.686;23.244;2022-12-07T07:20:24;94185.47;;;7.29;80.40
10732;BME280;5417;42.686;23.244;2022-12-07T07:22:54;94197.25;;;7.33;81.08
10732;BME280;5417;42.686;23.244;2022-12-07T07:25:21;94224.44;;;7.39;80.81
10732;BME280;5417;42.686;23.244;2022-12-07T07:27:48;94221.75;;;7.40;80.45
10732;BME280;5417;42.686;23.244;2022-12-07T07:30:23;94209.88;;;7.25;80.48
10732;BME280;5417;42.686;23.244;2022-12-07T07:32:55;94208.53;;;7.32;81.47
10732;BME280;5417;42.686;23.244;2022-12-07T07:35:26;94220.59;;;7.44;80.92
10732;BME280;5417;42.686;23.244;2022-12-07T07:37:54;94218.34;;;7.40;80.90
10732;BME280;5417;42.686;23.244;2022-12-07T07:40:25;94217.06;;;7.45;80.08
10732;BME280;5417;42.686;23.244;2022-12-07T07:42:57;94203.50;;;7.42;80.99
10732;BME280;5417;42.686;23.244;2022-12-07T07:45:26;94213.59;;;7.57;80.87
10732;BME280;5417;42.686;23.244;2022-12-07T07:47:53;94225.88;;;7.67;80.26
10732;BME280;5417;42.686;23.244;2022-12-07T07:50:21;94196.06;;;7.61;80.39
10732;BME280;5417;42.686;23.244;2022-12-07T07:52:49;94214.00;;;7.75;79.89
10732;BME280;5417;42.686;23.244;2022-12-07T07:55:22;94220.66;;;7.90;79.83
10732;BME280;5417;42.686;23.244;2022-12-07T07:57:53;94217.50;;;7.98;78.80
10732;BME280;5417;42.686;23.244;2022-12-07T08:00:22;94209.72;;;7.98;78.87
10732;BME280;5417;42.686;23.244;2022-12-07T08:02:52;94216.81;;;8.07;78.14
10732;BME280;5417;42.686;23.244;2022-12-07T08:05:21;94218.13;;;8.13;77.17
10732;BME280;5417;42.686;23.244;2022-12-07T08:07:49;94208.47;;;8.15;77.66
10732;BME280;5417;42.686;23.244;2022-12-07T08:10:16;94212.38;;;8.20;77.25
10732;BME280;5417;42.686;23.244;2022-12-07T08:12:43;94215.31;;;8.27;77.17
10732;BME280;5417;42.686;23.244;2022-12-07T08:15:29;94211.66;;;8.30;76.40
10732;BME280;5417;42.686;23.244;2022-12-07T08:17:56;94195.41;;;8.28;76.14
10732;BME280;5417;42.686;23.244;2022-12-07T08:20:23;94202.94;;;8.31;76.07
10732;BME280;5417;42.686;23.244;2022-12-07T08:22:53;94216.22;;;8.39;76.32
10732;BME280;5417;42.686;23.244;2022-12-07T08:25:20;94220.47;;;8.40;75.86
10732;BME280;5417;42.686;23.244;2022-12-07T08:27:47;94211.97;;;8.38;75.04
10732;BME280;5417;42.686;23.244;2022-12-07T08:30:15;94215.28;;;8.40;75.06
10732;BME280;5417;42.686;23.244;2022-12-07T08:32:44;94215.50;;;8.37;75.40
10732;BME280;5417;42.686;23.244;2022-12-07T08:35:13;94219.53;;;8.41;75.50
10732;BME280;5417;42.686;23.244;2022-12-07T08:37:41;94221.28;;;8.40;75.20
10732;BME280;5417;42.686;23.244;2022-12-07T08:40:31;94214.22;;;8.42;75.35
10732;BME280;5417;42.686;23.244;2022-12-07T08:42:58;94193.94;;;8.36;74.54
10732;BME280;5417;42.686;23.244;2022-12-07T08:45:27;94214.81;;;8.46;75.07
10732;BME280;5417;42.686;23.244;2022-12-07T08:48:02;94192.06;;;8.38;74.85
10732;BME280;5417;42.686;23.244;2022-12-07T08:50:31;94202.44;;;8.49;75.29
10732;BME280;5417;42.686;23.244;2022-12-07T08:53:00;94200.66;;;8.50;74.36
10732;BME280;5417;42.686;23.244;2022-12-07T08:55:28;94203.84;;;8.65;74.54
10732;BME280;5417;42.686;23.244;2022-12-07T08:58:07;94199.94;;;8.70;75.21
10732;BME280;5417;42.686;23.244;2022-12-07T09:00:34;94191.09;;;8.84;74.93
10732;BME280;5417;42.686;23.244;2022-12-07T09:03:01;94201.81;;;9.02;74.22
10732;BME280;5417;42.686;23.244;2022-12-07T09:07:21;94191.06;;;9.17;73.78
10732;BME280;5417;42.686;23.244;2022-12-07T09:09:04;94183.59;;;9.24;73.30
10732;BME280;5417;42.686;23.244;2022-12-07T09:11:31;94177.09;;;9.30;73.07
10732;BME280;5417;42.686;23.244;2022-12-07T09:14:00;94172.66;;;9.53;73.57
10732;BME280;5417;42.686;23.244;2022-12-07T09:16:37;94165.19;;;9.91;72.91
10732;BME280;5417;42.686;23.244;2022-12-07T09:19:04;94173.28;;;9.98;69.95
10732;BME280;5417;42.686;23.244;2022-12-07T09:21:31;94180.13;;;9.99;69.96
10732;BME280;5417;42.686;23.244;2022-12-07T09:23:58;94176.00;;;10.17;69.75
10732;BME280;5417;42.686;23.244;2022-12-07T09:27:16;94173.28;;;9.98;68.89
10732;BME280;5417;42.686;23.244;2022-12-07T09:29:35;94166.28;;;9.77;68.82
10732;BME280;5417;42.686;23.244;2022-12-07T09:32:03;94170.84;;;9.64;69.31
10732;BME280;5417;42.686;23.244;2022-12-07T09:34:30;94153.72;;;9.62;70.07
10732;BME280;5417;42.686;23.244;2022-12-07T09:37:04;94148.59;;;9.51;70.61
10732;BME280;5417;42.686;23.244;2022-12-07T09:39:32;94157.31;;;9.49;70.68
10732;BME280;5417;42.686;23.244;2022-12-07T09:41:59;94159.34;;;9.46;70.56
10732;BME280;5417;42.686;23.244;2022-12-07T09:44:29;94123.78;;;9.14;70.98
10732;BME280;5417;42.686;23.244;2022-12-07T09:46:58;94157.13;;;9.41;71.21
10732;BME280;5417;42.686;23.244;2022-12-07T09:49:32;94140.41;;;9.55;70.82
10732;BME280;5417;42.686;23.244;2022-12-07T09:52:02;94137.25;;;9.52;71.00
10732;BME280;5417;42.686;23.244;2022-12-07T09:54:29;94137.38;;;9.50;71.50
10732;BME280;5417;42.686;23.244;2022-12-07T09:56:58;94128.94;;;9.58;71.44
10732;BME280;5417;42.686;23.244;2022-12-07T09:59:25;94137.13;;;9.53;71.20
10732;BME280;5417;42.686;23.244;2022-12-07T10:02:25;94140.66;;;9.52;70.88
10732;BME280;5417;42.686;23.244;2022-12-07T10:04:56;94133.63;;;9.43;71.06
10732;BME280;5417;42.686;23.244;2022-12-07T10:07:24;94136.38;;;9.62;70.97
10732;BME280;5417;42.686;23.244;2022-12-07T10:09:51;94116.72;;;9.69;70.86
10732;BME280;5417;42.686;23.244;2022-12-07T10:12:18;94120.38;;;9.88;70.42
10732;BME280;5417;42.686;23.244;2022-12-07T10:14:54;94122.41;;;10.26;70.09
10732;BME280;5417;42.686;23.244;2022-12-07T10:17:39;94101.47;;;10.27;69.09
10732;BME280;5417;42.686;23.244;2022-12-07T10:20:18;94116.19;;;10.38;68.36
10732;BME280;5417;42.686;23.244;2022-12-07T10:56:22;94064.31;;;10.16;68.45
10732;BME280;5417;42.686;23.244;2022-12-07T10:59:04;94063.41;;;10.26;69.03
10732;BME280;5417;42.686;23.244;2022-12-07T11:01:48;94062.97;;;10.42;68.32
10732;BME280;5417;42.686;23.244;2022-12-07T11:04:24;94053.41;;;10.52;67.75
10732;BME280;5417;42.686;23.244;2022-12-07T11:07:01;94021.75;;;10.47;66.57
10732;BME280;5417;42.686;23.244;2022-12-07T11:09:52;94043.84;;;10.82;65.90
10732;BME280;5417;42.686;23.244;2022-12-07T11:12:31;94037.16;;;10.89;65.66
10732;BME280;5417;42.686;23.244;2022-12-07T11:15:11;94042.63;;;10.86;64.87
10732;BME280;5417;42.686;23.244;2022-12-07T11:17:47;94032.75;;;10.70;64.96
10732;BME280;5417;42.686;23.244;2022-12-07T11:20:32;94035.34;;;10.80;66.15
10732;BME280;5417;42.686;23.244;2022-12-07T11:23:04;94025.25;;;10.96;65.71
10732;BME280;5417;42.686;23.244;2022-12-07T11:25:42;94021.81;;;11.24;64.60
10732;BME280;5417;42.686;23.244;2022-12-07T11:28:26;94021.66;;;11.35;64.67
10732;BME280;5417;42.686;23.244;2022-12-07T11:31:03;94013.44;;;11.50;64.31
10732;BME280;5417;42.686;23.244;2022-12-07T11:33:40;94006.44;;;11.60;63.57
10732;BME280;5417;42.686;23.244;2022-12-07T11:36:23;94006.13;;;11.73;63.26
10732;BME280;5417;42.686;23.244;2022-12-07T11:38:56;94012.97;;;11.83;62.63
10732;BME280;5417;42.686;23.244;2022-12-07T11:41:31;94011.88;;;11.76;62.26
10732;BME280;5417;42.686;23.244;2022-12-07T11:44:04;94017.38;;;11.73;62.58
10732;BME280;5417;42.686;23.244;2022-12-07T11:46:43;94007.13;;;11.62;62.27
10732;BME280;5417;42.686;23.244;2022-12-07T11:49:15;94007.28;;;11.51;62.55
10732;BME280;5417;42.686;23.244;2022-12-07T11:51:47;93998.38;;;11.34;62.90
10732;BME280;5417;42.686;23.244;2022-12-07T11:54:19;94008.78;;;11.44;62.93
10732;BME280;5417;42.686;23.244;2022-12-07T11:56:50;93999.06;;;11.46;63.39
10732;BME280;5417;42.686;23.244;2022-12-07T11:59:23;93991.09;;;11.47;63.26
10732;BME280;5417;42.686;23.244;2022-12-07T12:01:57;93979.97;;;11.35;62.88
10732;BME280;5417;42.686;23.244;2022-12-07T12:04:49;93978.50;;;11.14;63.21
10732;BME280;5417;42.686;23.244;2022-12-07T12:07:22;93978.78;;;11.11;63.40
10732;BME280;5417;42.686;23.244;2022-12-07T12:09:52;93975.22;;;11.12;64.25
10732;BME280;5417;42.686;23.244;2022-12-07T12:12:40;93975.50;;;11.18;63.73
10732;BME280;5417;42.686;23.244;2022-12-07T12:15:26;93982.88;;;11.32;63.87
10732;BME280;5417;42.686;23.244;2022-12-07T12:18:23;93966.00;;;11.46;63.28
10732;BME280;5417;42.686;23.244;2022-12-07T12:20:55;93973.34;;;11.70;62.88
10732;BME280;5417;42.686;23.244;2022-12-07T12:23:27;93965.25;;;11.63;62.71
10732;BME280;5417;42.686;23.244;2022-12-07T12:26:01;93950.16;;;11.67;62.42
10732;BME280;5417;42.686;23.244;2022-12-07T12:28:33;93957.44;;;11.63;62.59
10732;BME280;5417;42.686;23.244;2022-12-07T12:31:07;93959.88;;;11.75;62.29
10732;BME280;5417;42.686;23.244;2022-12-07T12:33:36;93950.00;;;11.78;62.05
10732;BME280;5417;42.686;23.244;2022-12-07T12:36:25;93946.16;;;11.73;62.29
10732;BME280;5417;42.686;23.244;2022-12-07T12:39:11;93945.19;;;11.74;62.94
10732;BME280;5417;42.686;23.244;2022-12-07T12:42:01;93933.94;;;11.83;62.53
10732;BME280;5417;42.686;23.244;2022-12-07T12:45:04;93935.56;;;11.84;62.05
10732;BME280;5417;42.686;23.244;2022-12-07T12:50:38;93943.53;;;11.82;62.23
10732;BME280;5417;42.686;23.244;2022-12-07T12:53:17;93937.38;;;11.83;61.44
10732;BME280;5417;42.686;23.244;2022-12-07T12:56:25;93953.09;;;11.91;61.56
10732;BME280;5417;42.686;23.244;2022-12-07T12:59:23;93951.56;;;12.08;61.36
10732;BME280;5417;42.686;23.244;2022-12-07T13:01:54;93945.81;;;12.05;61.48
10732;BME280;5417;42.686;23.244;2022-12-07T13:04:28;93948.66;;;12.11;60.97
10732;BME280;5417;42.686;23.244;2022-12-07T13:06:57;93949.91;;;12.07;60.92
10732;BME280;5417;42.686;23.244;2022-12-07T13:09:26;93940.69;;;12.13;61.50
10732;BME280;5417;42.686;23.244;2022-12-07T13:12:00;93944.34;;;12.20;61.35
10732;BME280;5417;42.686;23.244;2022-12-07T13:14:40;93949.75;;;12.09;60.74
10732;BME280;5417;42.686;23.244;2022-12-07T13:17:10;93927.72;;;11.93;61.24
10732;BME280;5417;42.686;23.244;2022-12-07T13:19:59;93934.94;;;12.09;60.90
10732;BME280;5417;42.686;23.244;2022-12-07T13:22:51;93948.41;;;12.05;61.29
10732;BME280;5417;42.686;23.244;2022-12-07T13:25:22;93941.25;;;12.07;61.33
10732;BME280;5417;42.686;23.244;2022-12-07T13:27:57;93942.22;;;12.06;61.48
10732;BME280;5417;42.686;23.244;2022-12-07T13:30:24;93934.72;;;11.93;61.92
10732;BME280;5417;42.686;23.244;2022-12-07T13:32:56;93926.78;;;11.85;62.19
10732;BME280;5417;42.686;23.244;2022-12-07T13:35:31;93925.44;;;11.71;62.43
10732;BME280;5417;42.686;23.244;2022-12-07T13:38:01;93929.16;;;11.78;62.37
10732;BME280;5417;42.686;23.244;2022-12-07T13:40:29;93923.78;;;11.80;62.29
10732;BME280;5417;42.686;23.244;2022-12-07T13:43:01;93927.63;;;11.76;62.71
10732;BME280;5417;42.686;23.244;2022-12-07T13:45:30;93933.56;;;11.68;62.40
10732;BME280;5417;42.686;23.244;2022-12-07T13:48:22;93924.47;;;11.72;62.64
10732;BME280;5417;42.686;23.244;2022-12-07T13:50:55;93929.88;;;11.61;62.88
10732;BME280;5417;42.686;23.244;2022-12-07T13:53:23;93935.53;;;11.56;62.98
10732;BME280;5417;42.686;23.244;2022-12-07T13:55:53;93913.47;;;11.41;63.54
10732;BME280;5417;42.686;23.244;2022-12-07T13:58:21;93929.09;;;11.51;63.64
10732;BME280;5417;42.686;23.244;2022-12-07T14:00:49;93937.19;;;11.48;63.84
10732;BME280;5417;42.686;23.244;2022-12-07T14:03:33;93927.16;;;11.43;64.01
10732;BME280;5417;42.686;23.244;2022-12-07T14:06:17;93929.78;;;11.43;64.46
10732;BME280;5417;42.686;23.244;2022-12-07T14:08:44;93922.53;;;11.37;64.42
10732;BME280;5417;42.686;23.244;2022-12-07T14:11:16;93934.31;;;11.41;64.13
10732;BME280;5417;42.686;23.244;2022-12-07T14:14:04;93936.91;;;11.51;64.01
10732;BME280;5417;42.686;23.244;2022-12-07T14:16:33;93934.44;;;11.39;63.82